SARF/FMA METAR and TAF weather

Enter ICAO airport designator
Station Type Date Time Source
SARF METAR 2020/12/05 06:00 UTC NOAA

SARF 050600Z 18006KT CAVOK 20/16 Q1016 RERA


Station Type Date Time Source
SARF Decoded METAR 2020/12/05 06:00 UTC NOAA

Formosa Aerodrome, Argentina (SARF) 26-12S 058-14W 60M
Dec 05, 2020 - 01:00 AM EST / 2020.12.05 0600 UTC
Wind: from the S (180 degrees) at 7 MPH (6 KT):0
Visibility: greater than 7 mile(s):0
Temperature: 68 F (20 C)
Dew Point: 60 F (16 C)
Relative Humidity: 77%
Pressure (altimeter): 30.00 in. Hg (1016 hPa)
ob: SARF 050600Z 18006KT CAVOK 20/16 Q1016 RERA
cycle: 6

Station Type Date Time Source
SARF TAF 2020/12/05 06:21 UTC NOAA

TAF SARF 050500Z 0506/0606 16010KT 6000 SCT020 OVC040 TX30/0518Z TN18/0509Z
TEMPO 0507/0512 4000 DZ BR OVC020
BECMG 0513/0515 9999 BKN030

Example: see airport list